createdAt,value
2023-05-09T00:00:36.270Z,62.04
2023-05-09T00:01:28.675Z,62.03
2023-05-09T00:02:28.819Z,62.15
2023-05-09T00:03:28.653Z,62.08
2023-05-09T00:04:28.778Z,62.12
2023-05-09T00:05:28.638Z,62.12
2023-05-09T00:06:28.639Z,62.15
2023-05-09T00:07:28.646Z,62.12
2023-05-09T00:08:28.624Z,62.16
2023-05-09T00:09:28.615Z,62.15
2023-05-09T00:10:28.586Z,62.10
2023-05-09T00:11:28.603Z,62.01
2023-05-09T00:12:28.592Z,61.99
2023-05-09T00:13:28.548Z,61.93
2023-05-09T00:14:28.552Z,61.91
2023-05-09T00:15:28.532Z,61.86
2023-05-09T00:16:28.540Z,61.80
2023-05-09T00:17:28.601Z,61.76
2023-05-09T00:18:28.502Z,61.80
2023-05-09T00:19:29.164Z,61.93
2023-05-09T00:20:28.480Z,62.00
2023-05-09T00:21:28.455Z,61.93
2023-05-09T00:22:28.503Z,61.91
2023-05-09T00:23:28.436Z,61.90
2023-05-09T00:24:28.436Z,61.98
2023-05-09T00:25:28.420Z,61.95
2023-05-09T00:26:28.420Z,62.00
2023-05-09T00:27:28.426Z,61.96
2023-05-09T00:28:28.385Z,61.95
2023-05-09T00:29:28.388Z,61.99
2023-05-09T00:30:28.364Z,62.01
2023-05-09T00:31:28.370Z,61.99
2023-05-09T00:32:28.429Z,62.06
2023-05-09T00:33:28.346Z,62.10
2023-05-09T00:34:28.327Z,62.17
2023-05-09T00:35:28.332Z,62.08
2023-05-09T00:36:28.294Z,62.15
2023-05-09T00:37:28.309Z,62.13
2023-05-09T00:38:28.278Z,62.12
2023-05-09T00:39:28.295Z,62.33
2023-05-09T00:40:28.264Z,62.50
2023-05-09T00:41:28.245Z,62.55
2023-05-09T00:42:28.281Z,62.60
2023-05-09T00:43:28.218Z,62.63
2023-05-09T00:44:28.214Z,62.77
2023-05-09T00:45:28.213Z,62.81
2023-05-09T00:46:28.187Z,62.90
2023-05-09T00:47:28.252Z,63.04
2023-05-09T00:48:28.174Z,63.02
2023-05-09T00:49:28.164Z,63.00
2023-05-09T00:50:28.152Z,63.12
2023-05-09T00:51:28.148Z,63.20
2023-05-09T00:52:28.146Z,63.14
2023-05-09T00:53:28.115Z,63.19
2023-05-09T00:54:28.115Z,63.19
2023-05-09T00:55:28.106Z,63.17
2023-05-09T00:56:28.082Z,63.26
2023-05-09T00:57:28.104Z,63.27
2023-05-09T00:58:28.067Z,63.31
2023-05-09T00:59:28.055Z,63.31
2023-05-09T01:00:28.045Z,63.34
2023-05-09T01:01:28.102Z,63.35
2023-05-09T01:02:28.188Z,63.47
2023-05-09T01:03:28.079Z,63.54
2023-05-09T01:04:28.023Z,63.53
2023-05-09T01:05:27.986Z,63.64
2023-05-09T01:06:27.973Z,63.72
2023-05-09T01:07:27.972Z,63.85
2023-05-09T01:08:28.049Z,63.88
2023-05-09T01:09:27.947Z,63.95
2023-05-09T01:10:27.954Z,63.93
2023-05-09T01:11:27.924Z,64.12
2023-05-09T01:12:27.900Z,64.21
2023-05-09T01:13:27.913Z,64.33
2023-05-09T01:14:27.894Z,64.34
2023-05-09T01:15:27.886Z,64.35
2023-05-09T01:16:27.982Z,64.69
2023-05-09T01:17:27.913Z,64.69
2023-05-09T01:18:27.857Z,64.80
2023-05-09T01:19:27.840Z,64.87
2023-05-09T01:20:27.837Z,64.94
2023-05-09T01:21:27.816Z,64.96
2023-05-09T01:22:27.795Z,65.04
2023-05-09T01:23:27.814Z,65.04
2023-05-09T01:24:27.786Z,64.96
2023-05-09T01:25:27.788Z,65.00
2023-05-09T01:26:27.773Z,65.09
2023-05-09T01:27:27.748Z,65.20
2023-05-09T01:28:27.753Z,65.20
2023-05-09T01:29:27.749Z,65.28
2023-05-09T01:30:27.741Z,65.28
2023-05-09T01:31:27.759Z,65.17
2023-05-09T01:32:27.726Z,65.24
2023-05-09T01:33:27.720Z,65.39
2023-05-09T01:34:27.695Z,65.37
2023-05-09T01:35:27.670Z,65.47
2023-05-09T01:36:27.658Z,65.51
2023-05-09T01:37:27.650Z,65.62
2023-05-09T01:38:27.648Z,65.74
2023-05-09T01:39:27.652Z,65.70
2023-05-09T01:40:27.611Z,65.69
2023-05-09T01:41:27.601Z,65.65
2023-05-09T01:42:27.599Z,65.65
2023-05-09T01:43:27.677Z,65.71
2023-05-09T01:44:27.570Z,65.74
2023-05-09T01:45:27.579Z,65.78
2023-05-09T01:46:27.596Z,65.80
2023-05-09T01:47:27.553Z,65.78
2023-05-09T01:48:27.562Z,65.79
2023-05-09T01:49:27.522Z,65.83
2023-05-09T01:50:27.509Z,65.82
2023-05-09T01:51:27.503Z,65.78
2023-05-09T01:52:27.485Z,65.91
2023-05-09T01:53:27.493Z,66.00
2023-05-09T01:54:27.485Z,66.01
2023-05-09T01:55:27.459Z,66.02
2023-05-09T01:56:27.443Z,66.09
2023-05-09T01:57:27.426Z,66.11
2023-05-09T01:58:27.442Z,66.12
2023-05-09T01:59:27.415Z,66.23
2023-05-09T02:00:27.398Z,66.24
2023-05-09T02:01:27.388Z,66.18
2023-05-09T02:02:27.422Z,66.28
2023-05-09T02:03:27.413Z,66.36
2023-05-09T02:04:27.354Z,66.22
2023-05-09T02:05:27.349Z,66.37
2023-05-09T02:06:27.327Z,66.63
2023-05-09T02:07:27.322Z,66.71
2023-05-09T02:08:27.322Z,66.70
2023-05-09T02:09:27.328Z,66.81
2023-05-09T02:10:27.282Z,66.82
2023-05-09T02:11:27.287Z,66.83
2023-05-09T02:12:27.260Z,66.77
2023-05-09T02:13:27.313Z,66.79
2023-05-09T02:14:27.273Z,66.87
2023-05-09T02:15:27.247Z,66.94
2023-05-09T02:16:27.227Z,67.00
2023-05-09T02:17:27.210Z,66.99
2023-05-09T02:18:27.221Z,67.06
2023-05-09T02:19:27.213Z,67.08
2023-05-09T02:20:27.190Z,67.06
2023-05-09T02:21:29.045Z,67.15
2023-05-09T02:22:27.156Z,67.12
2023-05-09T02:23:27.363Z,67.17
2023-05-09T02:24:27.183Z,67.13
2023-05-09T02:25:27.124Z,67.12
2023-05-09T02:26:27.116Z,67.04
2023-05-09T02:27:27.113Z,67.05
2023-05-09T02:28:27.103Z,67.07
2023-05-09T02:29:27.113Z,67.16
2023-05-09T02:30:27.089Z,67.10
2023-05-09T02:31:27.088Z,67.04
2023-05-09T02:32:27.074Z,67.17
2023-05-09T02:33:27.033Z,67.30
2023-05-09T02:34:27.048Z,67.43
2023-05-09T02:35:27.015Z,67.47
2023-05-09T02:36:27.005Z,67.50
2023-05-09T02:37:26.991Z,67.51
2023-05-09T02:38:26.988Z,67.61
2023-05-09T02:39:26.991Z,67.61
2023-05-09T02:40:26.958Z,67.65
2023-05-09T02:41:26.951Z,67.67
2023-05-09T02:42:26.943Z,67.64
2023-05-09T02:43:26.930Z,67.77
2023-05-09T02:44:26.974Z,67.75
2023-05-09T02:45:26.922Z,67.74
2023-05-09T02:46:27.098Z,67.99
2023-05-09T02:47:26.971Z,68.04
2023-05-09T02:48:26.885Z,68.02
2023-05-09T02:49:32.308Z,68.08
2023-05-09T02:50:27.882Z,68.37
2023-05-09T02:51:26.851Z,68.39
2023-05-09T02:52:26.831Z,68.44
2023-05-09T02:53:26.861Z,68.56
2023-05-09T02:54:26.815Z,68.57
2023-05-09T02:55:26.839Z,68.60
2023-05-09T02:56:26.818Z,68.56
2023-05-09T02:57:26.781Z,68.42
2023-05-09T02:58:26.799Z,68.36
2023-05-09T02:59:26.820Z,68.35
2023-05-09T03:00:26.750Z,68.33
2023-05-09T03:01:26.791Z,68.21
2023-05-09T03:02:26.833Z,68.13
2023-05-09T03:03:26.798Z,68.06
2023-05-09T03:04:26.722Z,68.05
2023-05-09T03:05:26.692Z,68.01
2023-05-09T03:06:26.722Z,67.97
2023-05-09T03:07:26.669Z,67.97
2023-05-09T03:08:26.662Z,67.97
2023-05-09T03:09:26.688Z,67.97
2023-05-09T03:10:26.643Z,67.97
2023-05-09T03:11:26.623Z,67.87
2023-05-09T03:12:26.642Z,67.80
2023-05-09T03:13:26.713Z,67.78
2023-05-09T03:14:26.614Z,67.82
2023-05-09T03:15:26.650Z,67.87
2023-05-09T03:16:26.666Z,68.01
2023-05-09T03:17:26.624Z,68.03
2023-05-09T03:18:26.562Z,68.17
2023-05-09T03:19:26.573Z,68.17
2023-05-09T03:20:26.532Z,68.12
2023-05-09T03:21:26.529Z,68.26
2023-05-09T03:22:26.509Z,68.25
2023-05-09T03:23:26.525Z,68.36
2023-05-09T03:24:26.500Z,68.43
2023-05-09T03:25:26.530Z,68.62
2023-05-09T03:26:26.478Z,68.64
2023-05-09T03:27:26.459Z,68.68
2023-05-09T03:28:26.510Z,68.66
2023-05-09T03:29:26.458Z,68.65
2023-05-09T03:30:26.434Z,68.61
2023-05-09T03:31:26.512Z,68.65
2023-05-09T03:32:26.442Z,68.65
2023-05-09T03:33:26.393Z,68.69
2023-05-09T03:34:26.405Z,68.65
2023-05-09T03:35:26.398Z,68.65
2023-05-09T03:36:26.384Z,68.59
2023-05-09T03:37:27.214Z,68.53
2023-05-09T03:38:26.422Z,68.44
2023-05-09T03:39:26.340Z,68.33
2023-05-09T03:40:26.324Z,68.29
2023-05-09T03:41:26.398Z,68.28
2023-05-09T03:42:26.322Z,68.23
2023-05-09T03:43:26.334Z,68.21
2023-05-09T03:44:26.320Z,68.21
2023-05-09T03:45:26.275Z,68.29
2023-05-09T03:46:26.321Z,68.23
2023-05-09T03:47:26.269Z,68.27
2023-05-09T03:48:26.230Z,68.39
2023-05-09T03:49:26.233Z,68.44
2023-05-09T03:50:26.251Z,68.33
2023-05-09T03:51:26.211Z,68.31
2023-05-09T03:52:26.218Z,68.24
2023-05-09T03:53:26.200Z,68.27
2023-05-09T03:54:26.166Z,68.30
2023-05-09T03:55:26.210Z,68.31
2023-05-09T03:56:26.143Z,68.27
2023-05-09T03:57:26.130Z,68.17
2023-05-09T03:58:26.126Z,68.20
2023-05-09T03:59:26.142Z,68.18
2023-05-09T04:00:26.136Z,68.21
2023-05-09T04:01:26.099Z,68.24
2023-05-09T04:02:26.195Z,68.27
2023-05-09T04:03:26.181Z,68.27
2023-05-09T04:04:26.054Z,68.34
2023-05-09T04:05:26.104Z,68.40
2023-05-09T04:06:26.035Z,68.51
2023-05-09T04:07:26.025Z,68.71
2023-05-09T04:08:26.020Z,68.84
2023-05-09T04:09:26.002Z,68.93
2023-05-09T04:10:26.042Z,69.02
2023-05-09T04:11:25.996Z,69.03
2023-05-09T04:12:25.976Z,69.05
2023-05-09T04:13:26.107Z,69.15
2023-05-09T04:14:25.972Z,69.32
2023-05-09T04:15:26.042Z,69.38
2023-05-09T04:16:25.956Z,69.32
2023-05-09T04:17:25.930Z,69.32
2023-05-09T04:18:25.912Z,69.27
2023-05-09T04:19:25.909Z,69.33
2023-05-09T04:20:25.922Z,69.26
2023-05-09T04:21:25.908Z,69.24
2023-05-09T04:22:25.872Z,69.34
2023-05-09T04:23:25.856Z,69.39
2023-05-09T04:24:25.849Z,69.42
2023-05-09T04:25:25.850Z,69.44
2023-05-09T04:26:25.922Z,69.48
2023-05-09T04:27:25.848Z,69.57
2023-05-09T04:28:25.836Z,69.56
2023-05-09T04:29:25.813Z,69.55
2023-05-09T04:30:25.840Z,69.58
2023-05-09T04:31:25.820Z,69.46
2023-05-09T04:32:25.768Z,69.43
2023-05-09T04:33:25.746Z,69.36
2023-05-09T04:34:25.743Z,69.30
2023-05-09T04:35:25.823Z,69.27
2023-05-09T04:36:25.733Z,69.25
2023-05-09T04:37:25.710Z,69.19
2023-05-09T04:38:25.697Z,69.17
2023-05-09T04:39:25.712Z,69.19
2023-05-09T04:40:26.979Z,69.15
2023-05-09T04:41:25.735Z,69.05
2023-05-09T04:42:25.713Z,68.96
2023-05-09T04:43:25.640Z,68.89
2023-05-09T04:44:25.626Z,68.77
2023-05-09T04:45:25.651Z,68.78
2023-05-09T04:46:25.984Z,68.70
2023-05-09T04:47:25.620Z,68.73
2023-05-09T04:48:25.585Z,68.77
2023-05-09T04:49:25.612Z,68.81
2023-05-09T04:50:25.641Z,68.83
2023-05-09T04:51:25.572Z,68.87
2023-05-09T04:52:25.552Z,68.86
2023-05-09T04:53:25.554Z,68.96
2023-05-09T04:54:25.537Z,68.94
2023-05-09T04:55:25.541Z,69.01
2023-05-09T04:56:25.511Z,69.02
2023-05-09T04:57:25.488Z,69.00
2023-05-09T04:58:25.484Z,69.03
2023-05-09T04:59:25.478Z,68.98
2023-05-09T05:00:25.503Z,68.93
2023-05-09T05:01:25.528Z,68.96
2023-05-09T05:02:25.471Z,68.89
2023-05-09T05:03:25.441Z,68.86
2023-05-09T05:04:25.429Z,68.89
2023-05-09T05:05:25.854Z,68.93
2023-05-09T05:06:25.404Z,69.01
2023-05-09T05:07:25.521Z,68.95
2023-05-09T05:08:25.373Z,68.94
2023-05-09T05:09:25.370Z,68.99
2023-05-09T05:10:25.409Z,69.00
2023-05-09T05:11:25.340Z,69.03
2023-05-09T05:12:25.378Z,68.96
2023-05-09T05:13:25.357Z,68.88
2023-05-09T05:14:25.376Z,68.79
2023-05-09T05:15:25.313Z,68.79
2023-05-09T05:16:25.292Z,68.79
2023-05-09T05:17:25.303Z,68.82
2023-05-09T05:18:25.331Z,68.81
2023-05-09T05:19:25.262Z,68.78
2023-05-09T05:20:25.296Z,68.82
2023-05-09T05:21:25.264Z,68.81
2023-05-09T05:22:25.228Z,68.84
2023-05-09T05:23:25.276Z,68.76
2023-05-09T05:24:25.209Z,68.73
2023-05-09T05:25:25.269Z,68.74
2023-05-09T05:26:25.227Z,68.81
2023-05-09T05:27:25.174Z,68.66
2023-05-09T05:28:25.190Z,68.48
2023-05-09T05:29:25.139Z,68.50
2023-05-09T05:30:25.133Z,68.49
2023-05-09T05:31:25.279Z,68.79
2023-05-09T05:32:25.200Z,68.82
2023-05-09T05:33:25.104Z,68.93
2023-05-09T05:34:25.118Z,68.82
2023-05-09T05:35:25.068Z,68.86
2023-05-09T05:36:25.130Z,68.91
2023-05-09T05:37:25.054Z,69.07
2023-05-09T05:38:25.066Z,69.09
2023-05-09T05:39:25.032Z,68.98
2023-05-09T05:40:25.022Z,69.04
2023-05-09T05:41:25.061Z,69.02
2023-05-09T05:42:24.998Z,69.10
2023-05-09T05:43:24.995Z,69.11
2023-05-09T05:44:24.999Z,69.22
2023-05-09T05:45:25.011Z,69.04
2023-05-09T05:46:25.012Z,68.99
2023-05-09T05:47:24.945Z,68.86
2023-05-09T05:48:24.937Z,68.88
2023-05-09T05:49:25.066Z,68.74
2023-05-09T05:50:24.917Z,68.89
2023-05-09T05:51:24.928Z,68.78
2023-05-09T05:52:24.899Z,68.76
2023-05-09T05:53:24.891Z,68.75
2023-05-09T05:54:24.865Z,68.94
2023-05-09T05:55:24.864Z,68.69
2023-05-09T05:56:24.874Z,68.50
2023-05-09T05:57:24.939Z,68.45
2023-05-09T05:58:24.827Z,68.17
2023-05-09T05:59:24.820Z,67.98
2023-05-09T06:00:24.808Z,68.05
2023-05-09T06:01:24.876Z,67.90
2023-05-09T06:02:24.845Z,67.91
2023-05-09T06:03:24.917Z,67.80
2023-05-09T06:04:24.778Z,67.54
2023-05-09T06:05:24.784Z,67.22
2023-05-09T06:06:24.777Z,67.10
2023-05-09T06:07:24.751Z,67.16
2023-05-09T06:08:24.715Z,67.14
2023-05-09T06:09:24.705Z,67.25
2023-05-09T06:10:24.696Z,67.12
2023-05-09T06:11:24.748Z,66.87
2023-05-09T06:12:26.118Z,66.84
2023-05-09T06:13:24.750Z,67.05
2023-05-09T06:14:24.647Z,67.06
2023-05-09T06:15:24.674Z,66.91
2023-05-09T06:16:24.662Z,66.84
2023-05-09T06:17:24.641Z,66.63
2023-05-09T06:18:24.634Z,66.58
2023-05-09T06:19:24.607Z,66.57
2023-05-09T06:20:24.625Z,66.47
2023-05-09T06:21:24.581Z,66.46
2023-05-09T06:22:24.581Z,66.54
2023-05-09T06:23:24.562Z,66.48
2023-05-09T06:24:35.276Z,66.64
2023-05-09T06:25:25.541Z,67.18
2023-05-09T06:26:24.556Z,66.77
2023-05-09T06:27:24.539Z,66.52
2023-05-09T06:28:24.588Z,66.30
2023-05-09T06:29:24.491Z,66.19
2023-05-09T06:30:26.673Z,66.24
2023-05-09T06:31:25.788Z,66.00
2023-05-09T06:32:24.565Z,65.95
2023-05-09T06:33:24.448Z,66.14
2023-05-09T06:34:24.448Z,66.20
2023-05-09T06:35:24.435Z,66.17
2023-05-09T06:36:24.425Z,66.25
2023-05-09T06:37:24.481Z,66.47
2023-05-09T06:38:24.400Z,66.49
2023-05-09T06:39:24.408Z,66.49
2023-05-09T06:40:24.375Z,65.97
2023-05-09T06:41:24.376Z,65.48
2023-05-09T06:42:24.426Z,65.09
2023-05-09T06:43:24.358Z,64.77
2023-05-09T06:44:24.331Z,64.70
2023-05-09T06:45:24.363Z,64.47
2023-05-09T06:46:24.382Z,64.40
2023-05-09T06:47:24.393Z,63.95
2023-05-09T06:48:24.293Z,63.77
2023-05-09T06:49:24.273Z,63.72
2023-05-09T06:50:24.278Z,63.33
2023-05-09T06:51:24.257Z,63.08
2023-05-09T06:52:24.310Z,62.72
2023-05-09T06:53:24.239Z,62.38
2023-05-09T06:54:24.234Z,61.98
2023-05-09T06:55:24.231Z,61.94
2023-05-09T06:56:24.206Z,61.75
2023-05-09T06:57:24.227Z,61.66
2023-05-09T06:58:24.184Z,61.32
2023-05-09T06:59:24.179Z,61.09
2023-05-09T07:00:24.167Z,61.06
2023-05-09T07:01:24.199Z,60.94
2023-05-09T07:02:24.205Z,60.53
2023-05-09T07:03:24.140Z,60.29
2023-05-09T07:04:24.118Z,60.33
2023-05-09T07:05:24.133Z,60.38
2023-05-09T07:06:24.096Z,60.38
2023-05-09T07:07:24.139Z,60.11
2023-05-09T07:08:24.092Z,60.29
2023-05-09T07:09:24.078Z,60.37
2023-05-09T07:10:24.052Z,60.54
2023-05-09T07:11:24.053Z,60.80
2023-05-09T07:12:24.043Z,60.64
2023-05-09T07:13:24.123Z,60.51
2023-05-09T07:14:24.013Z,60.45
2023-05-09T07:15:39.885Z,59.59
2023-05-09T07:16:25.025Z,59.61
2023-05-09T07:17:24.386Z,59.56
2023-05-09T07:18:24.081Z,59.97
2023-05-09T07:19:23.975Z,59.69
2023-05-09T07:20:23.937Z,59.64
2023-05-09T07:21:23.989Z,59.75
2023-05-09T07:22:24.035Z,60.39
2023-05-09T07:23:23.951Z,59.67
2023-05-09T07:24:23.902Z,58.97
2023-05-09T07:25:23.933Z,59.07
2023-05-09T07:26:23.884Z,59.12
2023-05-09T07:27:23.916Z,58.88
2023-05-09T07:28:23.859Z,58.26
2023-05-09T07:29:23.844Z,57.73
2023-05-09T07:30:23.906Z,58.10
2023-05-09T07:31:23.865Z,58.05
2023-05-09T07:32:23.914Z,57.38
2023-05-09T07:33:23.846Z,57.05
2023-05-09T07:34:23.796Z,56.53
2023-05-09T07:35:23.787Z,56.33
2023-05-09T07:36:23.776Z,56.55
2023-05-09T07:37:23.811Z,57.33
2023-05-09T07:38:23.753Z,56.77
2023-05-09T07:39:23.771Z,56.75
2023-05-09T07:40:23.731Z,56.58
2023-05-09T07:41:23.729Z,56.27
2023-05-09T07:42:23.726Z,56.11
2023-05-09T07:43:23.724Z,55.82
2023-05-09T07:44:23.697Z,55.82
2023-05-09T07:45:24.139Z,55.41
2023-05-09T07:46:23.737Z,54.97
2023-05-09T07:47:23.676Z,54.99
2023-05-09T07:48:23.711Z,54.35
2023-05-09T07:49:23.682Z,54.16
2023-05-09T07:50:23.623Z,53.98
2023-05-09T07:51:23.608Z,53.82
2023-05-09T07:52:23.597Z,54.06
2023-05-09T07:53:23.606Z,53.98
2023-05-09T07:54:23.596Z,53.97
2023-05-09T07:55:23.638Z,53.96
2023-05-09T07:56:23.554Z,54.07
2023-05-09T07:57:23.554Z,53.99
2023-05-09T07:58:23.555Z,53.91
2023-05-09T07:59:23.533Z,53.45
2023-05-09T08:00:23.539Z,53.22
2023-05-09T08:01:23.520Z,53.51
2023-05-09T08:02:23.552Z,52.78
2023-05-09T08:03:23.562Z,52.60
2023-05-09T08:04:23.481Z,52.31
2023-05-09T08:05:23.460Z,51.96
2023-05-09T08:06:23.474Z,51.88
2023-05-09T08:07:23.444Z,52.07
2023-05-09T08:08:23.454Z,52.31
2023-05-09T08:09:23.415Z,52.47
2023-05-09T08:10:23.597Z,52.48
2023-05-09T08:11:23.407Z,52.84
2023-05-09T08:12:23.418Z,53.03
2023-05-09T08:13:23.430Z,52.57
2023-05-09T08:14:23.422Z,52.36
2023-05-09T08:15:23.345Z,51.99
2023-05-09T08:16:23.498Z,51.20
2023-05-09T08:17:23.374Z,50.92
2023-05-09T08:18:23.318Z,51.31
2023-05-09T08:19:23.326Z,51.27
2023-05-09T08:20:23.329Z,51.00
2023-05-09T08:21:23.282Z,50.87
2023-05-09T08:22:23.275Z,50.55
2023-05-09T08:23:23.280Z,50.62
2023-05-09T08:24:23.249Z,50.41
2023-05-09T08:25:23.245Z,50.77
2023-05-09T08:26:23.235Z,50.80
2023-05-09T08:27:23.253Z,50.52
2023-05-09T08:28:23.254Z,51.18
2023-05-09T08:29:23.202Z,50.89
2023-05-09T08:30:23.209Z,50.54
2023-05-09T08:31:23.182Z,49.91
2023-05-09T08:32:23.169Z,49.70
2023-05-09T08:33:23.216Z,49.55
2023-05-09T08:34:23.180Z,49.75
2023-05-09T08:35:23.130Z,49.78
2023-05-09T08:36:23.122Z,49.60
2023-05-09T08:37:23.149Z,49.80
2023-05-09T08:38:23.103Z,49.38
2023-05-09T08:39:23.213Z,49.30
2023-05-09T08:40:23.084Z,49.37
2023-05-09T08:41:23.072Z,49.32
2023-05-09T08:42:25.603Z,49.46
2023-05-09T08:43:23.078Z,49.59
2023-05-09T08:44:23.039Z,49.15
2023-05-09T08:45:23.024Z,49.01
2023-05-09T08:46:23.104Z,49.31
2023-05-09T08:47:23.017Z,49.49
2023-05-09T08:48:23.011Z,49.37
2023-05-09T08:49:22.972Z,48.91
2023-05-09T08:50:22.977Z,48.84
2023-05-09T08:51:22.977Z,48.48
2023-05-09T08:52:22.962Z,48.33
2023-05-09T08:53:22.958Z,48.11
2023-05-09T08:54:23.071Z,48.15
2023-05-09T08:55:22.921Z,48.31
2023-05-09T08:56:22.938Z,48.28
2023-05-09T08:57:22.895Z,49.23
2023-05-09T08:58:22.916Z,49.07
2023-05-09T08:59:22.885Z,48.93
2023-05-09T09:00:23.167Z,49.10
2023-05-09T09:01:22.887Z,48.74
2023-05-09T09:02:22.873Z,48.65
2023-05-09T09:03:22.851Z,47.86
2023-05-09T09:04:22.839Z,48.11
2023-05-09T09:05:40.161Z,47.66
2023-05-09T09:06:23.797Z,47.50
2023-05-09T09:07:22.802Z,47.15
2023-05-09T09:08:22.799Z,46.68
2023-05-09T09:09:22.771Z,46.92
2023-05-09T09:10:22.754Z,47.20
2023-05-09T09:11:22.821Z,47.36
2023-05-09T09:12:22.731Z,47.14
2023-05-09T09:13:22.846Z,46.98
2023-05-09T09:14:22.722Z,46.84
2023-05-09T09:15:22.717Z,46.57
2023-05-09T09:16:22.773Z,46.71
2023-05-09T09:17:22.717Z,46.62
2023-05-09T09:18:22.736Z,46.70
2023-05-09T09:19:22.664Z,46.45
2023-05-09T09:20:22.650Z,46.61
2023-05-09T09:21:22.644Z,46.23
2023-05-09T09:22:22.622Z,45.89
2023-05-09T09:23:22.701Z,45.88
2023-05-09T09:24:22.635Z,46.32
2023-05-09T09:25:22.601Z,46.73
2023-05-09T09:26:22.581Z,46.33
2023-05-09T09:27:22.580Z,46.70
2023-05-09T09:28:22.587Z,46.36
2023-05-09T09:29:22.628Z,45.91
2023-05-09T09:30:22.601Z,45.33
2023-05-09T09:31:22.682Z,45.21
2023-05-09T09:32:22.686Z,45.23
2023-05-09T09:33:22.662Z,45.55
2023-05-09T09:34:22.580Z,45.81
2023-05-09T09:35:22.523Z,45.18
2023-05-09T09:36:22.478Z,45.34
2023-05-09T09:37:22.551Z,44.80
2023-05-09T09:38:22.515Z,44.69
2023-05-09T09:39:22.480Z,45.01
2023-05-09T09:40:22.443Z,44.72
2023-05-09T09:41:22.433Z,45.88
2023-05-09T09:42:22.523Z,45.98
2023-05-09T09:43:22.434Z,45.56
2023-05-09T09:44:22.432Z,46.71
2023-05-09T09:45:22.374Z,45.90
2023-05-09T09:46:22.397Z,45.18
2023-05-09T09:47:22.360Z,45.33
2023-05-09T09:48:22.408Z,44.88
2023-05-09T09:49:22.370Z,44.82
2023-05-09T09:50:22.336Z,44.36
2023-05-09T09:51:22.322Z,44.69
2023-05-09T09:52:22.352Z,45.19
2023-05-09T09:53:22.323Z,45.49
2023-05-09T09:54:22.301Z,46.22
2023-05-09T09:55:22.305Z,46.72
2023-05-09T09:56:22.311Z,46.19
2023-05-09T09:57:22.279Z,45.80
2023-05-09T09:58:22.245Z,45.53
2023-05-09T09:59:22.352Z,45.17
2023-05-09T10:00:22.216Z,44.87
2023-05-09T10:01:22.237Z,44.86
2023-05-09T10:02:22.205Z,45.11
2023-05-09T10:03:22.375Z,44.67
2023-05-09T10:04:22.186Z,44.24
2023-05-09T10:05:22.176Z,44.25
2023-05-09T10:06:22.160Z,44.40
2023-05-09T10:07:22.146Z,44.23
2023-05-09T10:08:22.157Z,44.03
2023-05-09T10:09:22.170Z,43.85
2023-05-09T10:10:22.124Z,44.12
2023-05-09T10:11:22.109Z,44.07
2023-05-09T10:12:22.116Z,43.97
2023-05-09T10:13:22.145Z,44.27
2023-05-09T10:14:22.070Z,44.31
2023-05-09T10:15:22.067Z,44.01
2023-05-09T10:16:35.777Z,43.88
2023-05-09T10:17:23.320Z,43.74
2023-05-09T10:18:22.179Z,43.71
2023-05-09T10:19:22.061Z,43.78
2023-05-09T10:20:22.003Z,43.73
2023-05-09T10:21:21.997Z,43.74
2023-05-09T10:22:22.044Z,43.47
2023-05-09T10:23:22.005Z,43.32
2023-05-09T10:24:21.971Z,43.54
2023-05-09T10:25:21.949Z,43.41
2023-05-09T10:26:22.054Z,42.79
2023-05-09T10:27:21.973Z,43.03
2023-05-09T10:28:21.941Z,42.58
2023-05-09T10:29:21.964Z,42.95
2023-05-09T10:30:21.893Z,43.46
2023-05-09T10:31:21.895Z,43.67
2023-05-09T10:32:21.895Z,43.58
2023-05-09T10:33:21.883Z,43.27
2023-05-09T10:34:21.905Z,43.36
2023-05-09T10:35:21.849Z,43.04
2023-05-09T10:36:21.835Z,43.09
2023-05-09T10:37:21.823Z,43.06
2023-05-09T10:38:21.866Z,42.85
2023-05-09T10:39:21.799Z,42.96
2023-05-09T10:40:21.881Z,42.93
2023-05-09T10:41:21.845Z,43.86
2023-05-09T10:42:21.773Z,43.78
2023-05-09T10:43:21.773Z,44.01
2023-05-09T10:44:21.762Z,44.38
2023-05-09T10:45:21.763Z,44.25
2023-05-09T10:46:21.748Z,44.02
2023-05-09T10:47:21.874Z,43.86
2023-05-09T10:48:21.711Z,43.45
2023-05-09T10:49:21.712Z,43.87
2023-05-09T10:50:21.714Z,43.63
2023-05-09T10:51:21.669Z,43.02
2023-05-09T10:52:21.660Z,42.15
2023-05-09T10:53:21.734Z,42.01
2023-05-09T10:54:21.635Z,42.11
2023-05-09T10:55:21.641Z,42.11
2023-05-09T10:56:21.618Z,43.74
2023-05-09T10:57:21.693Z,42.75
2023-05-09T10:58:21.629Z,42.36
2023-05-09T10:59:21.602Z,41.40
2023-05-09T11:00:21.629Z,41.21
2023-05-09T11:01:21.625Z,41.20
2023-05-09T11:02:21.602Z,40.95
2023-05-09T11:03:21.633Z,40.89
2023-05-09T11:04:21.551Z,40.96
2023-05-09T11:05:21.556Z,40.92
2023-05-09T11:06:21.512Z,41.60
2023-05-09T11:07:21.497Z,41.59
2023-05-09T11:08:21.504Z,41.24
2023-05-09T11:09:21.504Z,41.22
2023-05-09T11:10:21.474Z,40.64
2023-05-09T11:11:21.459Z,40.34
2023-05-09T11:12:21.465Z,41.27
2023-05-09T11:13:21.494Z,40.48
2023-05-09T11:14:21.450Z,40.27
2023-05-09T11:15:21.443Z,40.09
2023-05-09T11:16:21.542Z,40.00
2023-05-09T11:17:21.432Z,40.38
2023-05-09T11:18:21.398Z,39.71
2023-05-09T11:19:21.395Z,40.53
2023-05-09T11:20:21.393Z,39.94
2023-05-09T11:21:21.436Z,41.22
2023-05-09T11:22:21.361Z,39.93
2023-05-09T11:23:21.325Z,39.70
2023-05-09T11:24:21.366Z,40.49
2023-05-09T11:25:21.313Z,39.75
2023-05-09T11:26:21.309Z,39.31
2023-05-09T11:27:21.292Z,39.54
2023-05-09T11:28:21.366Z,39.64
2023-05-09T11:29:21.287Z,40.03
2023-05-09T11:30:21.292Z,39.49
2023-05-09T11:31:21.332Z,39.28
2023-05-09T11:32:21.286Z,40.05
2023-05-09T11:33:21.225Z,39.63
2023-05-09T11:34:21.234Z,39.51
2023-05-09T11:35:21.235Z,39.48
2023-05-09T11:36:21.192Z,39.53
2023-05-09T11:37:21.198Z,39.41
2023-05-09T11:38:21.252Z,39.08
2023-05-09T11:39:21.194Z,38.91
2023-05-09T11:40:21.196Z,38.72
2023-05-09T11:41:21.153Z,39.00
2023-05-09T11:42:21.153Z,39.88
2023-05-09T11:43:21.158Z,39.75
2023-05-09T11:44:21.162Z,38.85
2023-05-09T11:45:21.103Z,38.35
2023-05-09T11:46:21.119Z,38.09
2023-05-09T11:47:21.167Z,37.98
2023-05-09T11:48:21.062Z,37.92
2023-05-09T11:49:21.090Z,38.18
2023-05-09T11:50:21.138Z,38.36
2023-05-09T11:51:21.038Z,38.10
2023-05-09T11:52:21.050Z,38.12
2023-05-09T11:53:21.020Z,38.42
2023-05-09T11:54:21.083Z,38.97
2023-05-09T11:55:21.022Z,38.76
2023-05-09T11:56:20.989Z,38.56
2023-05-09T11:57:21.021Z,38.55
2023-05-09T11:58:20.970Z,38.60
2023-05-09T11:59:20.973Z,38.08
2023-05-09T12:00:29.655Z,38.20
2023-05-09T12:01:20.929Z,37.81
2023-05-09T12:02:20.932Z,37.82
2023-05-09T12:03:21.073Z,38.02
2023-05-09T12:04:20.924Z,37.99
2023-05-09T12:05:20.923Z,37.92
2023-05-09T12:06:20.893Z,38.25
2023-05-09T12:07:20.868Z,37.90
2023-05-09T12:08:20.854Z,37.13
2023-05-09T12:09:20.913Z,37.14
2023-05-09T12:10:20.852Z,37.05
2023-05-09T12:11:20.871Z,38.27
2023-05-09T12:12:20.800Z,38.19
2023-05-09T12:13:20.845Z,37.81
2023-05-09T12:14:20.805Z,37.65
2023-05-09T12:15:20.977Z,37.14
2023-05-09T12:16:20.901Z,36.72
2023-05-09T12:17:20.808Z,36.89
2023-05-09T12:18:20.753Z,36.74
2023-05-09T12:19:20.730Z,36.91
2023-05-09T12:20:20.733Z,37.36
2023-05-09T12:21:20.771Z,37.61
2023-05-09T12:22:20.700Z,37.77
2023-05-09T12:23:20.936Z,37.69
2023-05-09T12:24:20.753Z,37.61
2023-05-09T12:25:20.759Z,37.95
2023-05-09T12:26:20.777Z,37.67
2023-05-09T12:27:20.745Z,37.29
2023-05-09T12:28:20.672Z,37.03
2023-05-09T12:29:20.619Z,37.66
2023-05-09T12:30:20.677Z,36.79
2023-05-09T12:31:20.665Z,36.62
2023-05-09T12:32:20.620Z,36.82
2023-05-09T12:33:20.585Z,36.75
2023-05-09T12:34:20.576Z,36.44
2023-05-09T12:35:20.583Z,36.61
2023-05-09T12:36:20.565Z,36.77
2023-05-09T12:37:20.539Z,37.16
2023-05-09T12:38:20.608Z,37.42
2023-05-09T12:39:20.508Z,37.40
2023-05-09T12:40:20.532Z,37.01
2023-05-09T12:41:35.062Z,38.22
2023-05-09T12:42:21.515Z,37.96
2023-05-09T12:43:20.474Z,37.42
2023-05-09T12:44:20.489Z,36.75
2023-05-09T12:45:20.470Z,37.55
2023-05-09T12:46:20.555Z,36.63
2023-05-09T12:47:20.469Z,37.10
2023-05-09T12:48:20.427Z,36.34
2023-05-09T12:49:20.413Z,36.03
2023-05-09T12:50:20.418Z,36.06
2023-05-09T12:51:20.443Z,35.72
2023-05-09T12:52:20.374Z,35.53